createdAt,value
2022-08-19T00:00:59.089Z,11.05
2022-08-19T00:06:04.739Z,11.48
2022-08-19T00:11:07.344Z,13.38
2022-08-19T00:16:14.456Z,13.32
2022-08-19T00:21:16.955Z,14.32
2022-08-19T00:31:21.967Z,12.73
2022-08-19T00:36:24.833Z,11.85
2022-08-19T00:41:29.233Z,11.80
2022-08-19T00:46:33.709Z,12.60
2022-08-19T00:51:36.663Z,13.15
2022-08-19T00:56:39.714Z,12.77
2022-08-19T01:01:45.709Z,13.10
2022-08-19T01:06:48.634Z,12.40
2022-08-19T01:11:54.659Z,11.45
2022-08-19T01:16:58.190Z,11.23
2022-08-19T01:22:14.169Z,12.50
2022-08-19T01:27:18.424Z,12.73
2022-08-19T01:32:33.134Z,13.23
2022-08-19T01:38:09.325Z,13.75
2022-08-19T01:43:12.131Z,14.30
2022-08-19T01:48:14.964Z,13.70
2022-08-19T01:53:21.566Z,14.10
2022-08-19T01:58:37.283Z,13.00
2022-08-19T02:03:40.226Z,14.18
2022-08-19T02:08:42.814Z,13.52
2022-08-19T02:13:45.411Z,13.50
2022-08-19T02:18:49.698Z,14.45
2022-08-19T02:23:56.715Z,14.10
2022-08-19T02:28:59.304Z,12.80
2022-08-19T02:34:03.557Z,12.50
2022-08-19T02:39:06.071Z,12.98
2022-08-19T02:49:29.329Z,13.95
2022-08-19T02:54:39.739Z,14.45
2022-08-19T03:04:44.634Z,12.95
2022-08-19T03:09:47.176Z,15.02
2022-08-19T03:14:49.666Z,15.20
2022-08-19T03:19:52.008Z,14.35
2022-08-19T03:24:54.851Z,14.93
2022-08-19T03:35:00.337Z,15.57
2022-08-19T03:40:05.071Z,15.63
2022-08-19T03:45:08.647Z,14.73
2022-08-19T03:50:11.021Z,15.18
2022-08-19T04:00:16.678Z,14.93
2022-08-19T04:05:22.367Z,14.18
2022-08-19T04:10:30.538Z,13.45
2022-08-19T04:15:40.101Z,12.05
2022-08-19T04:20:48.600Z,13.95
2022-08-19T04:25:54.083Z,16.52
2022-08-19T04:30:56.903Z,15.68
2022-08-19T04:35:59.393Z,18.70
2022-08-19T04:41:25.209Z,14.55
2022-08-19T04:46:39.233Z,16.35
2022-08-19T04:51:45.118Z,14.53
2022-08-19T04:56:47.498Z,15.95
2022-08-19T05:01:51.146Z,13.80
2022-08-19T05:06:56.959Z,13.07
2022-08-19T05:12:03.859Z,14.75
2022-08-19T05:17:26.692Z,15.65
2022-08-19T05:22:38.508Z,16.70
2022-08-19T05:27:44.177Z,14.35
2022-08-19T05:32:47.515Z,13.95
2022-08-19T05:37:54.865Z,15.65
2022-08-19T05:43:06.225Z,15.52
2022-08-19T05:48:12.245Z,16.88
2022-08-19T05:53:17.516Z,13.75
2022-08-19T05:58:19.881Z,14.18
2022-08-19T06:03:25.733Z,15.82
2022-08-19T06:08:34.627Z,16.08
2022-08-19T06:13:39.835Z,16.08
2022-08-19T06:18:42.378Z,16.95
2022-08-19T06:23:44.939Z,13.85
2022-08-19T06:33:51.004Z,14.50
2022-08-19T06:38:53.310Z,13.77
2022-08-19T06:48:59.452Z,13.35
2022-08-19T06:54:03.249Z,14.20
2022-08-19T06:59:11.779Z,12.77
2022-08-19T07:04:16.875Z,13.57
2022-08-19T07:09:25.602Z,13.68
2022-08-19T07:14:31.621Z,13.40
2022-08-19T07:19:39.970Z,12.45
2022-08-19T07:24:50.979Z,12.88
2022-08-19T07:29:55.929Z,12.15
2022-08-19T07:35:07.481Z,12.73
2022-08-19T07:40:10.316Z,13.15
2022-08-19T07:45:13.339Z,14.75
2022-08-19T07:50:16.530Z,13.20
2022-08-19T07:55:41.363Z,12.38
2022-08-19T08:00:48.048Z,12.82
2022-08-19T08:06:09.352Z,12.15
2022-08-19T08:11:12.569Z,12.38
2022-08-19T08:16:18.012Z,12.70
2022-08-19T08:21:21.187Z,11.98
2022-08-19T08:26:23.847Z,10.65
2022-08-19T08:31:26.366Z,11.60
2022-08-19T08:36:28.741Z,9.80
2022-08-19T08:41:50.697Z,9.43
2022-08-19T08:46:57.789Z,10.30
2022-08-19T08:52:03.617Z,10.35
2022-08-19T08:57:12.665Z,9.85
2022-08-19T09:02:15.493Z,8.73
2022-08-19T09:07:36.007Z,8.50
2022-08-19T09:12:51.154Z,9.00
2022-08-19T09:17:54.679Z,9.68
2022-08-19T09:22:57.485Z,9.93
2022-08-19T09:28:05.839Z,9.68
2022-08-19T09:33:17.560Z,10.40
2022-08-19T09:38:19.856Z,11.20
2022-08-19T09:43:33.584Z,11.60
2022-08-19T09:48:40.998Z,11.20
2022-08-19T09:53:47.169Z,11.70
2022-08-19T09:58:50.580Z,12.73
2022-08-19T10:03:58.301Z,14.40
2022-08-19T10:09:03.343Z,14.20
2022-08-19T10:14:23.656Z,13.20
2022-08-19T10:19:26.441Z,13.65
2022-08-19T10:24:29.812Z,14.20
2022-08-19T10:29:34.907Z,14.40
2022-08-19T10:34:48.269Z,15.55
2022-08-19T10:39:52.167Z,16.50
2022-08-19T10:44:54.780Z,17.75
2022-08-19T10:50:15.886Z,18.55
2022-08-19T10:55:40.306Z,17.60
2022-08-19T11:00:44.635Z,18.92
2022-08-19T11:05:47.446Z,19.23
2022-08-19T11:10:50.558Z,18.58
2022-08-19T11:16:08.200Z,18.23
2022-08-19T11:21:14.227Z,18.02
2022-08-19T11:26:19.020Z,17.73
2022-08-19T11:31:24.435Z,19.73
2022-08-19T11:36:34.671Z,18.67
2022-08-19T11:41:37.191Z,22.02
2022-08-19T11:46:39.790Z,22.60
2022-08-19T11:51:44.280Z,22.25
2022-08-19T11:56:48.923Z,18.33
2022-08-19T12:01:51.332Z,16.17
2022-08-19T12:06:54.148Z,17.40
2022-08-19T12:11:57.382Z,17.08
2022-08-19T12:16:59.784Z,18.70
2022-08-19T12:22:04.049Z,20.00
2022-08-19T12:27:06.345Z,18.80
2022-08-19T12:37:25.925Z,18.45
2022-08-19T12:42:28.549Z,17.17
2022-08-19T12:47:31.593Z,17.00
2022-08-19T12:52:38.409Z,18.08
2022-08-19T12:57:41.362Z,16.67
2022-08-19T13:02:46.711Z,16.10
2022-08-19T13:07:56.040Z,16.88
2022-08-19T13:19:09.172Z,17.45
2022-08-19T13:24:12.623Z,17.70
2022-08-19T13:29:33.694Z,17.27
2022-08-19T13:34:36.801Z,17.43
2022-08-19T13:39:41.534Z,17.33
2022-08-19T13:44:47.011Z,18.92
2022-08-19T13:49:51.095Z,19.00
2022-08-19T13:54:55.751Z,19.45
2022-08-19T14:00:00.114Z,20.05
2022-08-19T14:05:02.700Z,20.15
2022-08-19T14:10:07.341Z,20.63
2022-08-19T14:15:15.876Z,22.35
2022-08-19T14:20:18.820Z,25.67
2022-08-19T14:25:27.804Z,26.27
2022-08-19T14:30:38.819Z,28.08
2022-08-19T14:35:46.680Z,27.65
2022-08-19T14:40:53.138Z,32.65
2022-08-19T14:45:58.119Z,27.60
2022-08-19T14:51:01.584Z,27.40
2022-08-19T14:56:14.781Z,27.75
2022-08-19T15:01:17.153Z,29.80
2022-08-19T15:06:19.733Z,27.65
2022-08-19T15:11:28.720Z,25.85
2022-08-19T15:16:31.330Z,25.38
2022-08-19T15:21:33.892Z,24.83
2022-08-19T15:26:36.339Z,22.80
2022-08-19T15:31:38.827Z,22.58
2022-08-19T15:36:41.405Z,21.88
2022-08-19T15:41:43.719Z,21.38
2022-08-19T15:46:52.056Z,20.42
2022-08-19T15:51:58.290Z,19.90
2022-08-19T15:57:19.307Z,19.10
2022-08-19T16:02:46.192Z,20.10
2022-08-19T16:07:51.079Z,19.17
2022-08-19T16:12:58.532Z,20.02
2022-08-19T16:18:04.437Z,19.90
2022-08-19T16:23:07.080Z,19.40
2022-08-19T16:28:10.581Z,18.48
2022-08-19T16:33:13.072Z,19.58
2022-08-19T16:38:28.414Z,19.85
2022-08-19T16:43:31.513Z,19.80
2022-08-19T16:48:33.782Z,19.05
2022-08-19T16:58:39.265Z,17.73
2022-08-19T17:03:41.768Z,18.30
2022-08-19T17:08:48.757Z,17.77
2022-08-19T17:13:51.553Z,19.20
2022-08-19T17:19:04.971Z,18.30
2022-08-19T17:24:09.625Z,18.52
2022-08-19T17:29:11.915Z,20.15
2022-08-19T17:34:14.268Z,21.55
2022-08-19T17:39:16.591Z,22.98
2022-08-19T17:49:21.350Z,24.65
2022-08-19T17:59:25.907Z,20.77
2022-08-19T18:04:32.479Z,20.85
2022-08-19T18:14:44.297Z,22.08
2022-08-19T18:24:50.464Z,21.38
2022-08-19T18:29:59.989Z,21.38
2022-08-19T18:35:06.528Z,21.77
2022-08-19T18:40:34.059Z,20.95
2022-08-19T18:45:57.516Z,21.20
2022-08-19T18:51:00.657Z,19.77
2022-08-19T18:56:03.002Z,21.80
2022-08-19T19:06:22.017Z,20.35
2022-08-19T19:11:34.033Z,19.33
2022-08-19T19:16:37.958Z,21.58
2022-08-19T19:21:46.809Z,21.48
2022-08-19T19:26:51.501Z,27.08
2022-08-19T19:31:56.123Z,23.50
2022-08-19T19:36:59.888Z,33.13
2022-08-19T19:42:08.092Z,26.30
2022-08-19T19:47:19.138Z,22.10
2022-08-19T19:52:22.599Z,20.55
2022-08-19T19:57:26.914Z,20.30
2022-08-19T20:02:31.557Z,20.48
2022-08-19T20:07:58.146Z,20.80
2022-08-19T20:13:02.485Z,21.67
2022-08-19T20:18:05.547Z,20.63
2022-08-19T20:29:07.262Z,20.30
2022-08-19T20:34:15.681Z,19.88
2022-08-19T20:39:19.359Z,21.10
2022-08-19T20:44:22.180Z,20.50
2022-08-19T20:49:27.501Z,22.92
2022-08-19T20:54:33.829Z,23.05
2022-08-19T20:59:37.311Z,23.20
2022-08-19T21:04:41.242Z,23.27
2022-08-19T21:09:44.170Z,24.90
2022-08-19T21:15:11.428Z,25.08
2022-08-19T21:20:40.754Z,22.65
2022-08-19T21:25:54.547Z,26.23
2022-08-19T21:30:58.184Z,25.38
2022-08-19T21:36:02.749Z,23.88
2022-08-19T21:41:06.501Z,25.00
2022-08-19T21:46:09.676Z,24.73
2022-08-19T21:56:14.118Z,24.67
2022-08-19T22:01:17.095Z,25.02
2022-08-19T22:06:20.028Z,23.80
2022-08-19T22:11:24.235Z,25.55
2022-08-19T22:16:26.916Z,24.27
2022-08-19T22:21:39.891Z,26.25
2022-08-19T22:26:43.112Z,22.88
2022-08-19T22:31:45.466Z,23.48
2022-08-19T22:36:57.601Z,24.67
2022-08-19T22:42:00.858Z,24.63
2022-08-19T22:47:03.358Z,21.75
2022-08-19T22:52:17.628Z,23.30
2022-08-19T22:57:21.589Z,24.48
2022-08-19T23:02:31.265Z,23.38
2022-08-19T23:07:34.210Z,22.60
2022-08-19T23:17:41.429Z,22.70
2022-08-19T23:22:47.009Z,22.30
2022-08-19T23:28:08.170Z,21.30
2022-08-19T23:33:50.568Z,21.63
2022-08-19T23:38:54.843Z,21.42
2022-08-19T23:43:57.556Z,22.88
2022-08-19T23:49:03.082Z,21.63
2022-08-19T23:54:05.763Z,21.20
2022-08-19T23:59:08.657Z,20.27
